createdAt,value
2023-02-28T00:00:26.317Z,63.86
2023-02-28T00:05:30.573Z,63.57
2023-02-28T00:10:34.542Z,63.86
2023-02-28T00:15:38.429Z,63.33
2023-02-28T00:20:42.586Z,63.38
2023-02-28T00:25:47.127Z,63.25
2023-02-28T00:30:51.284Z,63.34
2023-02-28T00:36:10.146Z,62.81
2023-02-28T00:41:14.250Z,62.26
2023-02-28T00:46:18.090Z,62.52
2023-02-28T00:51:22.891Z,62.22
2023-02-28T00:56:26.680Z,62.27
2023-02-28T01:01:30.882Z,61.99
2023-02-28T01:06:36.056Z,61.92
2023-02-28T01:11:40.887Z,61.78
2023-02-28T01:16:45.860Z,61.40
2023-02-28T01:21:49.827Z,61.32
2023-02-28T01:26:54.664Z,61.06
2023-02-28T01:31:58.792Z,60.87
2023-02-28T01:37:02.861Z,60.54
2023-02-28T01:42:06.706Z,60.82
2023-02-28T01:47:10.912Z,61.78
2023-02-28T01:52:19.728Z,62.25
2023-02-28T01:57:26.213Z,61.19
2023-02-28T02:02:31.188Z,61.30
2023-02-28T02:07:39.832Z,60.96
2023-02-28T02:13:16.322Z,60.55
2023-02-28T02:18:56.325Z,59.88
2023-02-28T02:24:33.195Z,59.45
2023-02-28T02:30:04.364Z,59.68
2023-02-28T02:35:20.555Z,59.01
2023-02-28T02:40:29.689Z,59.82
2023-02-28T02:45:38.915Z,59.00
2023-02-28T02:50:48.579Z,58.70
2023-02-28T02:55:56.129Z,58.24
2023-02-28T03:01:04.443Z,58.34
2023-02-28T03:06:08.672Z,58.16
2023-02-28T03:11:17.437Z,57.53
2023-02-28T03:16:48.983Z,57.02
2023-02-28T03:21:57.021Z,56.68
2023-02-28T03:27:09.784Z,56.23
2023-02-28T03:32:26.636Z,56.17
2023-02-28T03:37:36.380Z,56.08
2023-02-28T03:42:44.975Z,56.36
2023-02-28T03:47:57.421Z,55.71
2023-02-28T03:53:11.153Z,55.60
2023-02-28T03:58:36.025Z,55.35
2023-02-28T04:03:40.853Z,55.01
2023-02-28T04:08:44.702Z,54.92
2023-02-28T04:13:48.657Z,54.82
2023-02-28T04:18:52.700Z,54.28
2023-02-28T04:23:57.295Z,54.14
2023-02-28T04:29:03.116Z,53.56
2023-02-28T04:34:07.568Z,53.46
2023-02-28T04:39:11.622Z,53.65
2023-02-28T04:44:16.509Z,53.06
2023-02-28T04:49:20.332Z,53.20
2023-02-28T04:54:24.283Z,52.78
2023-02-28T04:59:28.071Z,52.77
2023-02-28T05:04:31.968Z,52.71
2023-02-28T05:09:36.504Z,52.94
2023-02-28T05:14:40.301Z,51.72
2023-02-28T05:19:44.371Z,51.83
2023-02-28T05:24:48.249Z,51.35
2023-02-28T05:29:52.346Z,51.58
2023-02-28T05:34:56.313Z,50.90
2023-02-28T05:40:00.240Z,50.82
2023-02-28T05:45:04.765Z,50.65
2023-02-28T05:50:10.885Z,50.32
2023-02-28T05:55:14.970Z,50.70
2023-02-28T06:00:19.813Z,50.09
2023-02-28T06:05:24.732Z,49.54
2023-02-28T06:10:28.592Z,49.92
2023-02-28T06:15:32.960Z,49.70
2023-02-28T06:20:37.972Z,49.89
2023-02-28T06:25:41.963Z,50.02
2023-02-28T06:30:46.618Z,49.90
2023-02-28T06:35:54.481Z,49.62
2023-02-28T06:41:00.069Z,49.90
2023-02-28T06:46:06.876Z,50.03
2023-02-28T06:51:16.971Z,50.42
2023-02-28T06:56:24.357Z,49.98
2023-02-28T07:01:29.750Z,50.23
2023-02-28T07:06:34.608Z,50.60
2023-02-28T07:11:38.599Z,50.38
2023-02-28T07:16:42.516Z,50.29
2023-02-28T07:21:46.923Z,50.19
2023-02-28T07:26:50.833Z,50.30
2023-02-28T07:31:55.106Z,49.94
2023-02-28T07:36:59.026Z,50.31
2023-02-28T07:42:06.732Z,50.31
2023-02-28T07:47:11.738Z,50.30
2023-02-28T07:52:15.611Z,50.19
2023-02-28T07:57:19.879Z,50.48
2023-02-28T08:02:23.995Z,50.14
2023-02-28T08:07:27.812Z,50.16
2023-02-28T08:12:31.812Z,49.87
2023-02-28T08:17:35.704Z,50.48
2023-02-28T08:22:39.471Z,49.93
2023-02-28T08:27:44.085Z,50.14
2023-02-28T08:32:48.150Z,50.49
2023-02-28T08:37:53.243Z,50.22
2023-02-28T08:42:57.206Z,49.43
2023-02-28T08:48:03.709Z,50.29
2023-02-28T08:53:07.462Z,49.49
2023-02-28T08:58:11.389Z,49.88
2023-02-28T09:03:16.212Z,49.94
2023-02-28T09:08:20.008Z,49.92
2023-02-28T09:13:24.002Z,49.61
2023-02-28T09:18:29.071Z,49.98
2023-02-28T09:23:33.081Z,49.43
2023-02-28T09:28:36.945Z,49.64
2023-02-28T09:33:41.176Z,49.24
2023-02-28T09:38:46.314Z,50.09
2023-02-28T09:44:04.717Z,50.05
2023-02-28T09:49:17.355Z,50.37
2023-02-28T09:54:25.105Z,50.14
2023-02-28T10:00:02.949Z,50.38
2023-02-28T10:05:24.958Z,50.91
2023-02-28T10:10:35.260Z,50.47
2023-02-28T10:15:39.385Z,50.64
2023-02-28T10:20:45.285Z,50.79
2023-02-28T10:26:00.914Z,51.10
2023-02-28T10:31:05.655Z,51.11
2023-02-28T10:36:18.392Z,51.60
2023-02-28T10:41:38.003Z,51.48
2023-02-28T10:46:44.400Z,51.90
2023-02-28T10:51:50.911Z,52.18
2023-02-28T10:57:27.936Z,52.26
2023-02-28T11:02:40.902Z,52.51
2023-02-28T11:07:57.978Z,53.28
2023-02-28T11:13:03.181Z,53.26
2023-02-28T11:18:29.489Z,53.16
2023-02-28T11:23:38.160Z,53.52
2023-02-28T11:28:44.233Z,53.40
2023-02-28T11:33:55.018Z,53.91
2023-02-28T11:39:06.175Z,53.70
2023-02-28T11:44:40.287Z,54.10
2023-02-28T11:50:05.103Z,54.72
2023-02-28T11:55:17.398Z,54.55
2023-02-28T12:00:51.727Z,54.88
2023-02-28T12:06:04.382Z,55.08
2023-02-28T12:11:22.137Z,54.99
2023-02-28T12:16:30.445Z,55.09
2023-02-28T12:22:11.647Z,55.32
2023-02-28T12:27:21.510Z,54.95
2023-02-28T12:32:43.287Z,55.25
2023-02-28T12:37:57.523Z,55.19
2023-02-28T12:43:06.341Z,55.49
2023-02-28T12:48:16.688Z,55.13
2023-02-28T12:53:26.869Z,55.20
2023-02-28T12:58:51.951Z,55.48
2023-02-28T13:04:13.994Z,55.72
2023-02-28T13:09:18.777Z,55.71
2023-02-28T13:14:37.584Z,55.08
2023-02-28T13:19:43.906Z,55.25
2023-02-28T13:24:53.090Z,54.55
2023-02-28T13:29:57.325Z,54.56
2023-02-28T13:35:01.162Z,54.88
2023-02-28T13:40:31.607Z,54.77
2023-02-28T13:45:40.574Z,54.68
2023-02-28T13:50:45.955Z,54.59
2023-02-28T13:56:30.345Z,54.46
2023-02-28T14:01:53.202Z,54.60
2023-02-28T14:06:59.261Z,54.47
2023-02-28T14:12:40.117Z,54.85
2023-02-28T14:17:44.341Z,54.74
2023-02-28T14:23:00.295Z,55.02
2023-02-28T14:28:28.829Z,54.98
2023-02-28T14:33:57.878Z,54.65
2023-02-28T14:39:22.109Z,56.07
2023-02-28T14:44:28.595Z,56.91
2023-02-28T14:49:37.905Z,57.91
2023-02-28T14:54:42.992Z,58.31
2023-02-28T14:59:47.050Z,60.06
2023-02-28T15:05:18.528Z,59.91
2023-02-28T15:10:28.872Z,60.68
2023-02-28T15:15:51.717Z,61.17
2023-02-28T15:21:09.818Z,60.80
2023-02-28T15:26:21.523Z,60.93
2023-02-28T15:31:36.183Z,61.46
2023-02-28T15:36:43.329Z,63.23
2023-02-28T15:41:47.293Z,64.03
2023-02-28T15:47:07.232Z,64.91
2023-02-28T15:52:15.956Z,66.21
2023-02-28T15:57:24.565Z,67.18
2023-02-28T16:02:40.194Z,67.95
2023-02-28T16:07:45.791Z,68.63
2023-02-28T16:12:49.578Z,69.04
2023-02-28T16:17:55.894Z,69.80
2023-02-28T16:23:03.032Z,70.39
2023-02-28T16:28:18.666Z,70.98
2023-02-28T16:33:22.748Z,71.22
2023-02-28T16:38:27.062Z,71.85
2023-02-28T16:43:31.382Z,72.92
2023-02-28T16:48:35.548Z,73.21
2023-02-28T16:53:39.300Z,73.83
2023-02-28T16:58:44.170Z,73.73
2023-02-28T17:03:47.926Z,74.28
2023-02-28T17:08:53.937Z,74.93
2023-02-28T17:13:57.830Z,74.80
2023-02-28T17:19:05.415Z,75.26
2023-02-28T17:24:11.173Z,75.90
2023-02-28T17:29:23.369Z,75.48
2023-02-28T17:34:27.558Z,76.06
2023-02-28T17:39:32.720Z,76.24
2023-02-28T17:44:36.833Z,76.29
2023-02-28T17:49:40.660Z,76.76
2023-02-28T17:54:45.325Z,76.48
2023-02-28T17:59:49.135Z,76.51
2023-02-28T18:04:52.984Z,76.80
2023-02-28T18:09:56.980Z,76.96
2023-02-28T18:15:00.913Z,77.28
2023-02-28T18:20:07.910Z,77.12
2023-02-28T18:25:18.491Z,77.06
2023-02-28T18:30:23.044Z,77.13
2023-02-28T18:35:36.772Z,77.35
2023-02-28T18:40:41.549Z,77.71
2023-02-28T18:45:45.510Z,78.02
2023-02-28T18:50:50.184Z,77.91
2023-02-28T18:55:54.167Z,78.12
2023-02-28T19:00:58.034Z,77.92
2023-02-28T19:06:01.985Z,78.10
2023-02-28T19:11:25.370Z,78.62
2023-02-28T19:16:29.988Z,78.79
2023-02-28T19:21:37.427Z,78.44
2023-02-28T19:26:41.186Z,78.53
2023-02-28T19:31:45.604Z,78.80
2023-02-28T19:36:50.494Z,78.75
2023-02-28T19:41:54.982Z,78.71
2023-02-28T19:46:58.751Z,78.79
2023-02-28T19:52:02.919Z,79.26
2023-02-28T19:57:06.905Z,79.02
2023-02-28T20:02:22.456Z,79.16
2023-02-28T20:07:26.472Z,79.12
2023-02-28T20:12:30.562Z,79.22
2023-02-28T20:17:34.552Z,78.78
2023-02-28T20:22:39.960Z,78.98
2023-02-28T20:27:44.077Z,79.43
2023-02-28T20:32:47.950Z,79.57
2023-02-28T20:37:52.323Z,79.35
2023-02-28T20:42:56.506Z,79.24
2023-02-28T20:48:00.283Z,79.49
2023-02-28T20:53:04.523Z,79.29
2023-02-28T20:58:08.545Z,79.31
2023-02-28T21:03:12.509Z,79.66
2023-02-28T21:08:16.567Z,79.17
2023-02-28T21:13:20.217Z,78.94
2023-02-28T21:18:25.129Z,79.14
2023-02-28T21:23:28.906Z,79.16
2023-02-28T21:28:35.081Z,78.80
2023-02-28T21:33:39.540Z,79.01
2023-02-28T21:38:44.749Z,78.96
2023-02-28T21:43:49.858Z,79.36
2023-02-28T21:48:55.343Z,78.71
2023-02-28T21:54:00.930Z,78.97
2023-02-28T21:59:07.706Z,78.57
2023-02-28T22:04:21.825Z,78.58
2023-02-28T22:09:26.697Z,78.78
2023-02-28T22:14:30.691Z,78.19
2023-02-28T22:19:37.612Z,78.77
2023-02-28T22:24:41.552Z,78.81
2023-02-28T22:29:46.644Z,78.57
2023-02-28T22:34:52.630Z,78.35
2023-02-28T22:39:56.532Z,78.44
2023-02-28T22:45:00.418Z,78.30
2023-02-28T22:50:04.928Z,78.96
2023-02-28T22:55:10.094Z,78.60
2023-02-28T23:00:17.872Z,79.29
2023-02-28T23:05:21.869Z,78.99
2023-02-28T23:10:25.930Z,79.65
2023-02-28T23:15:29.799Z,79.54
2023-02-28T23:20:34.190Z,79.40
2023-02-28T23:25:44.027Z,79.57
2023-02-28T23:30:47.996Z,79.90
2023-02-28T23:35:51.786Z,80.29
2023-02-28T23:40:56.615Z,79.97
2023-02-28T23:46:00.498Z,79.85
2023-02-28T23:51:10.730Z,80.46
2023-02-28T23:56:17.664Z,80.31
